sensor_id;sensor_type;location;lat;lon;timestamp;temperature;humidity
16827;DHT22;8530;49.540;8.576;2023-07-31T00:00:04;19.60;56.60
16827;DHT22;8530;49.540;8.576;2023-07-31T00:02:31;19.60;56.70
16827;DHT22;8530;49.540;8.576;2023-07-31T00:04:59;19.60;56.80
16827;DHT22;8530;49.540;8.576;2023-07-31T00:07:26;19.60;56.90
16827;DHT22;8530;49.540;8.576;2023-07-31T00:09:53;19.60;56.90
16827;DHT22;8530;49.540;8.576;2023-07-31T00:12:22;19.60;57.00
16827;DHT22;8530;49.540;8.576;2023-07-31T00:14:49;19.60;57.10
16827;DHT22;8530;49.540;8.576;2023-07-31T00:17:17;19.60;57.20
16827;DHT22;8530;49.540;8.576;2023-07-31T00:19:43;19.60;57.30
16827;DHT22;8530;49.540;8.576;2023-07-31T00:22:12;19.60;57.30
16827;DHT22;8530;49.540;8.576;2023-07-31T00:24:39;19.60;57.50
16827;DHT22;8530;49.540;8.576;2023-07-31T00:27:06;19.60;57.60
16827;DHT22;8530;49.540;8.576;2023-07-31T00:29:32;19.50;57.60
16827;DHT22;8530;49.540;8.576;2023-07-31T00:31:59;19.50;57.70
16827;DHT22;8530;49.540;8.576;2023-07-31T00:34:26;19.50;57.80
16827;DHT22;8530;49.540;8.576;2023-07-31T00:36:53;19.50;58.00
16827;DHT22;8530;49.540;8.576;2023-07-31T00:39:21;19.50;58.10
16827;DHT22;8530;49.540;8.576;2023-07-31T00:41:48;19.50;58.20
16827;DHT22;8530;49.540;8.576;2023-07-31T00:44:14;19.50;58.30
16827;DHT22;8530;49.540;8.576;2023-07-31T00:46:41;19.40;58.40
16827;DHT22;8530;49.540;8.576;2023-07-31T00:49:08;19.40;58.50
16827;DHT22;8530;49.540;8.576;2023-07-31T00:51:35;19.40;58.60
16827;DHT22;8530;49.540;8.576;2023-07-31T00:54:03;19.40;58.70
16827;DHT22;8530;49.540;8.576;2023-07-31T00:56:31;19.40;58.90
16827;DHT22;8530;49.540;8.576;2023-07-31T00:58:57;19.40;59.00
16827;DHT22;8530;49.540;8.576;2023-07-31T01:01:24;19.40;59.20
16827;DHT22;8530;49.540;8.576;2023-07-31T01:03:51;19.40;59.30
16827;DHT22;8530;49.540;8.576;2023-07-31T01:06:28;19.40;59.40
16827;DHT22;8530;49.540;8.576;2023-07-31T01:09:02;19.30;59.50
16827;DHT22;8530;49.540;8.576;2023-07-31T01:11:34;19.30;59.60
16827;DHT22;8530;49.540;8.576;2023-07-31T01:14:04;19.30;59.60
16827;DHT22;8530;49.540;8.576;2023-07-31T01:16:31;19.30;59.70
16827;DHT22;8530;49.540;8.576;2023-07-31T01:18:58;19.30;59.70
16827;DHT22;8530;49.540;8.576;2023-07-31T01:21:46;19.30;59.80
16827;DHT22;8530;49.540;8.576;2023-07-31T01:24:24;19.30;60.00
16827;DHT22;8530;49.540;8.576;2023-07-31T01:26:57;19.30;59.90
16827;DHT22;8530;49.540;8.576;2023-07-31T01:29:32;19.30;60.00
16827;DHT22;8530;49.540;8.576;2023-07-31T01:32:02;19.30;60.10
16827;DHT22;8530;49.540;8.576;2023-07-31T01:34:29;19.20;60.70
16827;DHT22;8530;49.540;8.576;2023-07-31T01:36:58;19.20;60.20
16827;DHT22;8530;49.540;8.576;2023-07-31T01:39:24;19.20;60.30
16827;DHT22;8530;49.540;8.576;2023-07-31T01:41:51;19.20;60.40
16827;DHT22;8530;49.540;8.576;2023-07-31T01:44:19;19.20;60.50
16827;DHT22;8530;49.540;8.576;2023-07-31T01:46:46;19.20;60.60
16827;DHT22;8530;49.540;8.576;2023-07-31T01:49:12;19.20;60.70
16827;DHT22;8530;49.540;8.576;2023-07-31T01:51:39;19.20;60.70
16827;DHT22;8530;49.540;8.576;2023-07-31T01:54:06;19.20;60.80
16827;DHT22;8530;49.540;8.576;2023-07-31T01:56:32;19.20;60.90
16827;DHT22;8530;49.540;8.576;2023-07-31T01:58:59;19.20;61.00
16827;DHT22;8530;49.540;8.576;2023-07-31T02:01:27;19.20;61.10
16827;DHT22;8530;49.540;8.576;2023-07-31T02:03:54;19.20;61.10
16827;DHT22;8530;49.540;8.576;2023-07-31T02:06:21;19.20;61.20
16827;DHT22;8530;49.540;8.576;2023-07-31T02:08:48;19.20;61.20
16827;DHT22;8530;49.540;8.576;2023-07-31T02:11:15;19.20;61.30
16827;DHT22;8530;49.540;8.576;2023-07-31T02:13:42;19.20;61.30
16827;DHT22;8530;49.540;8.576;2023-07-31T02:16:08;19.20;61.40
16827;DHT22;8530;49.540;8.576;2023-07-31T02:18:37;19.20;61.40
16827;DHT22;8530;49.540;8.576;2023-07-31T02:21:03;19.20;61.40
16827;DHT22;8530;49.540;8.576;2023-07-31T02:23:30;19.20;61.40
16827;DHT22;8530;49.540;8.576;2023-07-31T02:25:57;19.20;61.40
16827;DHT22;8530;49.540;8.576;2023-07-31T02:28:23;19.20;61.40
16827;DHT22;8530;49.540;8.576;2023-07-31T02:30:51;19.20;61.40
16827;DHT22;8530;49.540;8.576;2023-07-31T02:33:17;19.20;61.40
16827;DHT22;8530;49.540;8.576;2023-07-31T02:35:46;19.20;61.50
16827;DHT22;8530;49.540;8.576;2023-07-31T02:38:12;19.20;61.60
16827;DHT22;8530;49.540;8.576;2023-07-31T02:40:39;19.20;61.50
16827;DHT22;8530;49.540;8.576;2023-07-31T02:43:06;19.20;61.60
16827;DHT22;8530;49.540;8.576;2023-07-31T02:45:33;19.20;61.60
16827;DHT22;8530;49.540;8.576;2023-07-31T02:48:02;19.20;61.60
16827;DHT22;8530;49.540;8.576;2023-07-31T02:50:29;19.20;61.60
16827;DHT22;8530;49.540;8.576;2023-07-31T02:52:58;19.20;61.70
16827;DHT22;8530;49.540;8.576;2023-07-31T02:55:25;19.10;61.70
16827;DHT22;8530;49.540;8.576;2023-07-31T02:57:52;19.10;61.80
16827;DHT22;8530;49.540;8.576;2023-07-31T03:00:19;19.10;61.90
16827;DHT22;8530;49.540;8.576;2023-07-31T03:02:45;19.10;62.00
16827;DHT22;8530;49.540;8.576;2023-07-31T03:05:12;19.00;62.00
16827;DHT22;8530;49.540;8.576;2023-07-31T03:07:39;19.00;62.10
16827;DHT22;8530;49.540;8.576;2023-07-31T03:10:08;19.00;62.20
16827;DHT22;8530;49.540;8.576;2023-07-31T03:12:35;19.00;62.30
16827;DHT22;8530;49.540;8.576;2023-07-31T03:15:02;19.00;62.30
16827;DHT22;8530;49.540;8.576;2023-07-31T03:17:28;19.00;62.30
16827;DHT22;8530;49.540;8.576;2023-07-31T03:19:55;19.00;62.40
16827;DHT22;8530;49.540;8.576;2023-07-31T03:22:22;19.00;62.40
16827;DHT22;8530;49.540;8.576;2023-07-31T03:24:48;19.00;62.40
16827;DHT22;8530;49.540;8.576;2023-07-31T03:27:16;19.00;62.50
16827;DHT22;8530;49.540;8.576;2023-07-31T03:29:43;19.00;62.50
16827;DHT22;8530;49.540;8.576;2023-07-31T03:32:10;19.00;62.50
16827;DHT22;8530;49.540;8.576;2023-07-31T03:34:36;19.00;62.50
16827;DHT22;8530;49.540;8.576;2023-07-31T03:37:03;19.00;62.50
16827;DHT22;8530;49.540;8.576;2023-07-31T03:39:31;19.00;62.40
16827;DHT22;8530;49.540;8.576;2023-07-31T03:41:57;19.00;62.40
16827;DHT22;8530;49.540;8.576;2023-07-31T03:44:25;19.10;62.50
16827;DHT22;8530;49.540;8.576;2023-07-31T03:46:52;19.00;62.30
16827;DHT22;8530;49.540;8.576;2023-07-31T03:49:19;19.10;62.40
16827;DHT22;8530;49.540;8.576;2023-07-31T03:51:46;19.00;62.30
16827;DHT22;8530;49.540;8.576;2023-07-31T03:54:12;19.00;62.30
16827;DHT22;8530;49.540;8.576;2023-07-31T03:56:40;19.00;62.30
16827;DHT22;8530;49.540;8.576;2023-07-31T03:59:07;19.00;62.30
16827;DHT22;8530;49.540;8.576;2023-07-31T04:01:35;19.00;62.30
16827;DHT22;8530;49.540;8.576;2023-07-31T04:04:02;19.00;62.30
16827;DHT22;8530;49.540;8.576;2023-07-31T04:06:28;19.00;62.30
16827;DHT22;8530;49.540;8.576;2023-07-31T04:08:55;19.00;62.30
16827;DHT22;8530;49.540;8.576;2023-07-31T04:11:22;19.00;62.30
16827;DHT22;8530;49.540;8.576;2023-07-31T04:13:48;19.00;62.30
16827;DHT22;8530;49.540;8.576;2023-07-31T04:16:15;19.00;62.30
16827;DHT22;8530;49.540;8.576;2023-07-31T04:18:43;19.00;62.30
16827;DHT22;8530;49.540;8.576;2023-07-31T04:21:10;19.00;62.30
16827;DHT22;8530;49.540;8.576;2023-07-31T04:23:37;19.00;62.30
16827;DHT22;8530;49.540;8.576;2023-07-31T04:26:04;19.00;62.30
16827;DHT22;8530;49.540;8.576;2023-07-31T04:28:31;19.00;62.30
16827;DHT22;8530;49.540;8.576;2023-07-31T04:30:58;19.00;62.30
16827;DHT22;8530;49.540;8.576;2023-07-31T04:33:24;19.00;62.30
16827;DHT22;8530;49.540;8.576;2023-07-31T04:35:53;19.10;62.40
16827;DHT22;8530;49.540;8.576;2023-07-31T04:38:21;19.10;62.50
16827;DHT22;8530;49.540;8.576;2023-07-31T04:40:48;19.10;62.40
16827;DHT22;8530;49.540;8.576;2023-07-31T04:43:15;19.10;62.40
16827;DHT22;8530;49.540;8.576;2023-07-31T04:45:44;19.10;63.00
16827;DHT22;8530;49.540;8.576;2023-07-31T04:48:12;19.20;62.50
16827;DHT22;8530;49.540;8.576;2023-07-31T04:50:38;19.20;62.40
16827;DHT22;8530;49.540;8.576;2023-07-31T04:53:07;19.20;62.30
16827;DHT22;8530;49.540;8.576;2023-07-31T04:55:33;19.30;62.40
16827;DHT22;8530;49.540;8.576;2023-07-31T04:58:00;19.30;62.40
16827;DHT22;8530;49.540;8.576;2023-07-31T05:00:27;19.40;62.30
16827;DHT22;8530;49.540;8.576;2023-07-31T05:02:53;19.50;62.40
16827;DHT22;8530;49.540;8.576;2023-07-31T05:05:20;19.50;62.20
16827;DHT22;8530;49.540;8.576;2023-07-31T05:07:47;19.50;62.10
16827;DHT22;8530;49.540;8.576;2023-07-31T05:10:15;19.60;62.10
16827;DHT22;8530;49.540;8.576;2023-07-31T05:12:41;19.70;62.10
16827;DHT22;8530;49.540;8.576;2023-07-31T05:15:09;19.70;62.00
16827;DHT22;8530;49.540;8.576;2023-07-31T05:17:36;19.70;61.90
16827;DHT22;8530;49.540;8.576;2023-07-31T05:20:03;19.80;61.90
16827;DHT22;8530;49.540;8.576;2023-07-31T05:22:29;19.90;61.90
16827;DHT22;8530;49.540;8.576;2023-07-31T05:24:56;19.90;61.70
16827;DHT22;8530;49.540;8.576;2023-07-31T05:27:24;19.90;61.50
16827;DHT22;8530;49.540;8.576;2023-07-31T05:29:51;20.00;61.50
16827;DHT22;8530;49.540;8.576;2023-07-31T05:32:17;20.00;61.40
16827;DHT22;8530;49.540;8.576;2023-07-31T05:34:44;20.10;61.40
16827;DHT22;8530;49.540;8.576;2023-07-31T05:37:11;20.20;62.00
16827;DHT22;8530;49.540;8.576;2023-07-31T05:39:37;20.30;61.30
16827;DHT22;8530;49.540;8.576;2023-07-31T05:42:05;20.40;61.10
16827;DHT22;8530;49.540;8.576;2023-07-31T05:44:33;20.50;61.00
16827;DHT22;8530;49.540;8.576;2023-07-31T05:46:59;20.50;60.60
16827;DHT22;8530;49.540;8.576;2023-07-31T05:49:26;20.50;61.10
16827;DHT22;8530;49.540;8.576;2023-07-31T05:51:53;20.60;60.40
16827;DHT22;8530;49.540;8.576;2023-07-31T05:54:19;20.60;60.20
16827;DHT22;8530;49.540;8.576;2023-07-31T05:56:46;20.70;60.20
16827;DHT22;8530;49.540;8.576;2023-07-31T05:59:13;20.70;60.00
16827;DHT22;8530;49.540;8.576;2023-07-31T06:01:41;20.70;59.90
16827;DHT22;8530;49.540;8.576;2023-07-31T06:04:08;20.80;59.90
16827;DHT22;8530;49.540;8.576;2023-07-31T06:06:34;20.80;59.80
16827;DHT22;8530;49.540;8.576;2023-07-31T06:09:01;20.80;59.60
16827;DHT22;8530;49.540;8.576;2023-07-31T06:11:28;20.80;59.40
16827;DHT22;8530;49.540;8.576;2023-07-31T06:13:55;20.80;59.30
16827;DHT22;8530;49.540;8.576;2023-07-31T06:16:23;20.90;59.30
16827;DHT22;8530;49.540;8.576;2023-07-31T06:18:51;20.90;59.20
16827;DHT22;8530;49.540;8.576;2023-07-31T06:21:18;20.90;59.00
16827;DHT22;8530;49.540;8.576;2023-07-31T06:23:44;21.00;59.00
16827;DHT22;8530;49.540;8.576;2023-07-31T06:26:11;21.10;59.00
16827;DHT22;8530;49.540;8.576;2023-07-31T06:28:38;21.30;58.90
16827;DHT22;8530;49.540;8.576;2023-07-31T06:31:04;21.50;58.80
16827;DHT22;8530;49.540;8.576;2023-07-31T06:33:31;21.70;58.60
16827;DHT22;8530;49.540;8.576;2023-07-31T06:35:59;21.90;58.40
16827;DHT22;8530;49.540;8.576;2023-07-31T06:38:26;22.40;58.30
16827;DHT22;8530;49.540;8.576;2023-07-31T06:40:53;23.20;58.50
16827;DHT22;8530;49.540;8.576;2023-07-31T06:43:20;24.10;58.30
16827;DHT22;8530;49.540;8.576;2023-07-31T06:45:47;24.60;56.90
16827;DHT22;8530;49.540;8.576;2023-07-31T06:48:16;24.60;55.40
16827;DHT22;8530;49.540;8.576;2023-07-31T06:50:42;24.40;54.30
16827;DHT22;8530;49.540;8.576;2023-07-31T06:53:10;24.20;53.70
16827;DHT22;8530;49.540;8.576;2023-07-31T06:55:37;24.00;53.40
16827;DHT22;8530;49.540;8.576;2023-07-31T06:58:04;24.00;53.30
16827;DHT22;8530;49.540;8.576;2023-07-31T07:00:31;24.00;53.00
16827;DHT22;8530;49.540;8.576;2023-07-31T07:02:58;24.00;52.80
16827;DHT22;8530;49.540;8.576;2023-07-31T07:05:24;24.00;52.70
16827;DHT22;8530;49.540;8.576;2023-07-31T07:07:51;24.20;52.70
16827;DHT22;8530;49.540;8.576;2023-07-31T07:10:19;24.60;52.90
16827;DHT22;8530;49.540;8.576;2023-07-31T07:12:46;25.60;53.40
16827;DHT22;8530;49.540;8.576;2023-07-31T07:15:13;26.40;53.00
16827;DHT22;8530;49.540;8.576;2023-07-31T07:17:39;27.90;52.80
16827;DHT22;8530;49.540;8.576;2023-07-31T07:20:07;28.60;50.20
16827;DHT22;8530;49.540;8.576;2023-07-31T07:22:34;29.70;48.90
16827;DHT22;8530;49.540;8.576;2023-07-31T07:25:01;30.80;47.10
16827;DHT22;8530;49.540;8.576;2023-07-31T07:27:29;31.20;44.30
16827;DHT22;8530;49.540;8.576;2023-07-31T07:29:56;30.80;41.80
16827;DHT22;8530;49.540;8.576;2023-07-31T07:32:23;30.00;40.20
16827;DHT22;8530;49.540;8.576;2023-07-31T07:34:49;29.10;39.70
16827;DHT22;8530;49.540;8.576;2023-07-31T07:37:16;28.40;39.70
16827;DHT22;8530;49.540;8.576;2023-07-31T07:39:43;27.80;39.70
16827;DHT22;8530;49.540;8.576;2023-07-31T07:42:10;27.50;40.10
16827;DHT22;8530;49.540;8.576;2023-07-31T07:44:38;27.30;40.30
16827;DHT22;8530;49.540;8.576;2023-07-31T07:47:05;27.20;40.40
16827;DHT22;8530;49.540;8.576;2023-07-31T07:49:33;27.10;40.50
16827;DHT22;8530;49.540;8.576;2023-07-31T07:52:00;27.10;40.70
16827;DHT22;8530;49.540;8.576;2023-07-31T07:54:26;27.50;41.30
16827;DHT22;8530;49.540;8.576;2023-07-31T07:56:53;27.80;41.10
16827;DHT22;8530;49.540;8.576;2023-07-31T07:59:20;28.40;41.50
16827;DHT22;8530;49.540;8.576;2023-07-31T08:01:48;29.70;41.90
16827;DHT22;8530;49.540;8.576;2023-07-31T08:04:15;31.00;41.00
16827;DHT22;8530;49.540;8.576;2023-07-31T08:06:41;32.30;39.90
16827;DHT22;8530;49.540;8.576;2023-07-31T08:09:08;33.30;38.00
16827;DHT22;8530;49.540;8.576;2023-07-31T08:11:35;34.20;36.30
16827;DHT22;8530;49.540;8.576;2023-07-31T08:14:02;34.90;34.50
16827;DHT22;8530;49.540;8.576;2023-07-31T08:16:29;35.50;33.10
16827;DHT22;8530;49.540;8.576;2023-07-31T08:18:57;35.80;31.60
16827;DHT22;8530;49.540;8.576;2023-07-31T08:21:24;35.60;30.10
16827;DHT22;8530;49.540;8.576;2023-07-31T08:23:50;34.80;29.50
16827;DHT22;8530;49.540;8.576;2023-07-31T08:26:17;33.90;29.30
16827;DHT22;8530;49.540;8.576;2023-07-31T08:28:44;33.10;29.40
16827;DHT22;8530;49.540;8.576;2023-07-31T08:31:11;32.30;29.50
16827;DHT22;8530;49.540;8.576;2023-07-31T08:33:38;31.40;29.70
16827;DHT22;8530;49.540;8.576;2023-07-31T08:36:07;30.80;30.20
16827;DHT22;8530;49.540;8.576;2023-07-31T08:38:33;30.30;30.70
16827;DHT22;8530;49.540;8.576;2023-07-31T08:41:00;30.00;31.00
16827;DHT22;8530;49.540;8.576;2023-07-31T08:43:29;29.90;31.60
16827;DHT22;8530;49.540;8.576;2023-07-31T08:45:56;29.80;32.30
16827;DHT22;8530;49.540;8.576;2023-07-31T08:48:23;29.70;32.70
16827;DHT22;8530;49.540;8.576;2023-07-31T08:50:51;29.50;32.90
16827;DHT22;8530;49.540;8.576;2023-07-31T08:53:19;29.30;33.30
16827;DHT22;8530;49.540;8.576;2023-07-31T08:55:46;29.20;33.70
16827;DHT22;8530;49.540;8.576;2023-07-31T08:58:15;29.10;33.90
16827;DHT22;8530;49.540;8.576;2023-07-31T09:00:43;29.20;34.20
16827;DHT22;8530;49.540;8.576;2023-07-31T09:03:13;29.30;34.30
16827;DHT22;8530;49.540;8.576;2023-07-31T09:05:42;29.30;34.30
16827;DHT22;8530;49.540;8.576;2023-07-31T09:08:11;29.20;34.40
16827;DHT22;8530;49.540;8.576;2023-07-31T09:10:41;29.00;34.40
16827;DHT22;8530;49.540;8.576;2023-07-31T09:13:08;28.70;34.60
16827;DHT22;8530;49.540;8.576;2023-07-31T09:15:36;28.60;35.40
16827;DHT22;8530;49.540;8.576;2023-07-31T09:18:04;28.80;35.10
16827;DHT22;8530;49.540;8.576;2023-07-31T09:20:31;28.90;35.00
16827;DHT22;8530;49.540;8.576;2023-07-31T09:23:05;29.10;35.00
16827;DHT22;8530;49.540;8.576;2023-07-31T09:25:33;29.50;35.00
16827;DHT22;8530;49.540;8.576;2023-07-31T09:28:03;29.70;34.80
16827;DHT22;8530;49.540;8.576;2023-07-31T09:30:30;29.90;34.60
16827;DHT22;8530;49.540;8.576;2023-07-31T09:33:01;29.90;34.40
16827;DHT22;8530;49.540;8.576;2023-07-31T09:35:29;29.80;34.30
16827;DHT22;8530;49.540;8.576;2023-07-31T09:37:57;29.90;34.40
16827;DHT22;8530;49.540;8.576;2023-07-31T09:40:26;30.10;34.30
16827;DHT22;8530;49.540;8.576;2023-07-31T09:42:53;30.40;34.10
16827;DHT22;8530;49.540;8.576;2023-07-31T09:45:21;30.50;33.70
16827;DHT22;8530;49.540;8.576;2023-07-31T09:47:48;30.60;33.50
16827;DHT22;8530;49.540;8.576;2023-07-31T09:50:15;30.50;33.30
16827;DHT22;8530;49.540;8.576;2023-07-31T09:52:42;30.50;33.20
16827;DHT22;8530;49.540;8.576;2023-07-31T09:55:09;30.40;33.10
16827;DHT22;8530;49.540;8.576;2023-07-31T09:57:39;30.10;33.00
16827;DHT22;8530;49.540;8.576;2023-07-31T10:00:08;29.90;33.20
16827;DHT22;8530;49.540;8.576;2023-07-31T10:02:37;29.70;33.50
16827;DHT22;8530;49.540;8.576;2023-07-31T10:05:06;29.50;33.60
16827;DHT22;8530;49.540;8.576;2023-07-31T10:07:36;29.20;33.60
16827;DHT22;8530;49.540;8.576;2023-07-31T10:10:04;28.70;33.90
16827;DHT22;8530;49.540;8.576;2023-07-31T10:12:33;28.40;34.30
16827;DHT22;8530;49.540;8.576;2023-07-31T10:15:01;28.20;34.70
16827;DHT22;8530;49.540;8.576;2023-07-31T10:17:29;28.00;35.00
16827;DHT22;8530;49.540;8.576;2023-07-31T10:19:58;28.00;35.90
16827;DHT22;8530;49.540;8.576;2023-07-31T10:22:26;28.00;35.70
16827;DHT22;8530;49.540;8.576;2023-07-31T10:24:55;28.10;35.90
16827;DHT22;8530;49.540;8.576;2023-07-31T10:27:24;28.10;36.00
16827;DHT22;8530;49.540;8.576;2023-07-31T10:29:52;28.00;36.00
16827;DHT22;8530;49.540;8.576;2023-07-31T10:32:20;28.20;36.20
16827;DHT22;8530;49.540;8.576;2023-07-31T10:34:48;28.40;36.30
16827;DHT22;8530;49.540;8.576;2023-07-31T10:37:25;28.70;36.30
16827;DHT22;8530;49.540;8.576;2023-07-31T10:39:56;28.90;36.00
16827;DHT22;8530;49.540;8.576;2023-07-31T10:42:31;29.00;35.90
16827;DHT22;8530;49.540;8.576;2023-07-31T10:44:58;29.00;35.80
16827;DHT22;8530;49.540;8.576;2023-07-31T10:47:26;28.90;35.60
16827;DHT22;8530;49.540;8.576;2023-07-31T10:49:52;28.80;35.50
16827;DHT22;8530;49.540;8.576;2023-07-31T10:52:21;28.80;35.60
16827;DHT22;8530;49.540;8.576;2023-07-31T10:55:13;28.80;35.60
16827;DHT22;8530;49.540;8.576;2023-07-31T10:57:44;29.10;35.60
16827;DHT22;8530;49.540;8.576;2023-07-31T11:00:22;29.10;35.40
16827;DHT22;8530;49.540;8.576;2023-07-31T11:02:59;29.10;35.30
16827;DHT22;8530;49.540;8.576;2023-07-31T11:05:47;28.90;35.20
16827;DHT22;8530;49.540;8.576;2023-07-31T11:08:15;28.70;35.30
16827;DHT22;8530;49.540;8.576;2023-07-31T11:10:44;28.50;35.50
16827;DHT22;8530;49.540;8.576;2023-07-31T11:13:11;28.40;35.60
16827;DHT22;8530;49.540;8.576;2023-07-31T11:15:38;28.30;36.30
16827;DHT22;8530;49.540;8.576;2023-07-31T11:18:05;28.30;35.70
16827;DHT22;8530;49.540;8.576;2023-07-31T11:20:35;28.10;35.80
16827;DHT22;8530;49.540;8.576;2023-07-31T11:23:03;28.10;35.80
16827;DHT22;8530;49.540;8.576;2023-07-31T11:25:30;28.20;36.00
16827;DHT22;8530;49.540;8.576;2023-07-31T11:28:03;28.30;36.00
16827;DHT22;8530;49.540;8.576;2023-07-31T11:30:30;28.40;36.00
16827;DHT22;8530;49.540;8.576;2023-07-31T11:32:56;28.40;35.90
16827;DHT22;8530;49.540;8.576;2023-07-31T11:35:23;28.30;35.80
16827;DHT22;8530;49.540;8.576;2023-07-31T11:37:50;28.20;35.90
16827;DHT22;8530;49.540;8.576;2023-07-31T11:40:17;28.10;36.00
16827;DHT22;8530;49.540;8.576;2023-07-31T11:42:44;28.00;36.20
16827;DHT22;8530;49.540;8.576;2023-07-31T11:45:12;27.80;36.30
16827;DHT22;8530;49.540;8.576;2023-07-31T11:47:39;27.70;36.60
16827;DHT22;8530;49.540;8.576;2023-07-31T11:50:09;27.40;36.70
16827;DHT22;8530;49.540;8.576;2023-07-31T11:52:40;27.20;37.00
16827;DHT22;8530;49.540;8.576;2023-07-31T11:55:08;27.00;37.80
16827;DHT22;8530;49.540;8.576;2023-07-31T11:57:37;26.90;37.60
16827;DHT22;8530;49.540;8.576;2023-07-31T12:00:06;27.00;37.90
16827;DHT22;8530;49.540;8.576;2023-07-31T12:02:36;27.10;38.10
16827;DHT22;8530;49.540;8.576;2023-07-31T12:05:05;27.10;38.20
16827;DHT22;8530;49.540;8.576;2023-07-31T12:07:44;27.10;38.20
16827;DHT22;8530;49.540;8.576;2023-07-31T12:10:11;27.00;39.00
16827;DHT22;8530;49.540;8.576;2023-07-31T12:12:37;26.80;38.50
16827;DHT22;8530;49.540;8.576;2023-07-31T12:15:14;26.70;38.70
16827;DHT22;8530;49.540;8.576;2023-07-31T12:17:42;26.70;39.10
16827;DHT22;8530;49.540;8.576;2023-07-31T12:20:10;26.70;39.20
16827;DHT22;8530;49.540;8.576;2023-07-31T12:22:37;26.70;39.30
16827;DHT22;8530;49.540;8.576;2023-07-31T12:25:04;26.70;39.40
16827;DHT22;8530;49.540;8.576;2023-07-31T12:27:33;26.80;39.40
16827;DHT22;8530;49.540;8.576;2023-07-31T12:30:00;26.90;39.40
16827;DHT22;8530;49.540;8.576;2023-07-31T12:32:30;27.00;39.40
16827;DHT22;8530;49.540;8.576;2023-07-31T12:35:00;27.20;39.30
16827;DHT22;8530;49.540;8.576;2023-07-31T12:37:28;27.20;39.10
16827;DHT22;8530;49.540;8.576;2023-07-31T12:39:55;27.20;38.90
16827;DHT22;8530;49.540;8.576;2023-07-31T12:42:26;27.10;38.80
16827;DHT22;8530;49.540;8.576;2023-07-31T12:44:52;27.10;38.80
16827;DHT22;8530;49.540;8.576;2023-07-31T12:47:19;27.00;38.80
16827;DHT22;8530;49.540;8.576;2023-07-31T12:49:46;26.90;38.80
16827;DHT22;8530;49.540;8.576;2023-07-31T12:52:14;26.80;38.80
16827;DHT22;8530;49.540;8.576;2023-07-31T12:54:41;26.70;39.00
16827;DHT22;8530;49.540;8.576;2023-07-31T12:57:07;26.70;39.10
16827;DHT22;8530;49.540;8.576;2023-07-31T12:59:36;26.80;39.20
16827;DHT22;8530;49.540;8.576;2023-07-31T13:02:05;26.90;39.20
16827;DHT22;8530;49.540;8.576;2023-07-31T13:04:32;27.20;39.20
16827;DHT22;8530;49.540;8.576;2023-07-31T13:07:02;27.30;39.00
16827;DHT22;8530;49.540;8.576;2023-07-31T13:09:30;27.40;38.90
16827;DHT22;8530;49.540;8.576;2023-07-31T13:11:57;27.60;38.80
16827;DHT22;8530;49.540;8.576;2023-07-31T13:14:23;27.80;39.20
16827;DHT22;8530;49.540;8.576;2023-07-31T13:16:52;28.00;38.40
16827;DHT22;8530;49.540;8.576;2023-07-31T13:19:18;28.10;38.10
16827;DHT22;8530;49.540;8.576;2023-07-31T13:21:45;28.20;38.00
16827;DHT22;8530;49.540;8.576;2023-07-31T13:24:14;28.10;37.80
16827;DHT22;8530;49.540;8.576;2023-07-31T13:26:42;27.90;37.70
16827;DHT22;8530;49.540;8.576;2023-07-31T13:29:09;27.80;37.80
16827;DHT22;8530;49.540;8.576;2023-07-31T13:31:39;27.70;37.90
16827;DHT22;8530;49.540;8.576;2023-07-31T13:34:05;27.50;38.00
16827;DHT22;8530;49.540;8.576;2023-07-31T13:36:35;27.30;38.00
16827;DHT22;8530;49.540;8.576;2023-07-31T13:39:02;27.00;38.20
16827;DHT22;8530;49.540;8.576;2023-07-31T13:41:29;26.80;38.50
16827;DHT22;8530;49.540;8.576;2023-07-31T13:43:57;26.70;38.80
16827;DHT22;8530;49.540;8.576;2023-07-31T13:46:26;26.60;39.00
16827;DHT22;8530;49.540;8.576;2023-07-31T13:48:53;26.70;39.30
16827;DHT22;8530;49.540;8.576;2023-07-31T13:51:21;26.60;39.30
16827;DHT22;8530;49.540;8.576;2023-07-31T13:53:48;26.60;39.30
16827;DHT22;8530;49.540;8.576;2023-07-31T13:56:14;26.40;39.40
16827;DHT22;8530;49.540;8.576;2023-07-31T13:58:41;26.20;39.60
16827;DHT22;8530;49.540;8.576;2023-07-31T14:01:09;26.10;39.90
16827;DHT22;8530;49.540;8.576;2023-07-31T14:03:36;25.90;40.20
16827;DHT22;8530;49.540;8.576;2023-07-31T14:06:03;25.70;40.40
16827;DHT22;8530;49.540;8.576;2023-07-31T14:08:29;25.60;40.70
16827;DHT22;8530;49.540;8.576;2023-07-31T14:10:56;25.50;41.00
16827;DHT22;8530;49.540;8.576;2023-07-31T14:13:23;25.40;41.30
16827;DHT22;8530;49.540;8.576;2023-07-31T14:15:53;25.50;41.60
16827;DHT22;8530;49.540;8.576;2023-07-31T14:18:21;25.50;41.80
16827;DHT22;8530;49.540;8.576;2023-07-31T14:20:48;25.50;42.00
16827;DHT22;8530;49.540;8.576;2023-07-31T14:23:14;25.60;42.10
16827;DHT22;8530;49.540;8.576;2023-07-31T14:25:41;25.70;42.20
16827;DHT22;8530;49.540;8.576;2023-07-31T14:28:08;25.80;42.30
16827;DHT22;8530;49.540;8.576;2023-07-31T14:30:34;25.80;42.30
16827;DHT22;8530;49.540;8.576;2023-07-31T14:33:01;25.90;42.40
16827;DHT22;8530;49.540;8.576;2023-07-31T14:35:29;26.00;42.50
16827;DHT22;8530;49.540;8.576;2023-07-31T14:37:56;26.30;42.60
16827;DHT22;8530;49.540;8.576;2023-07-31T14:40:23;26.60;42.50
16827;DHT22;8530;49.540;8.576;2023-07-31T14:42:49;26.90;42.40
16827;DHT22;8530;49.540;8.576;2023-07-31T14:45:16;27.10;42.20
16827;DHT22;8530;49.540;8.576;2023-07-31T14:47:43;27.10;42.00
16827;DHT22;8530;49.540;8.576;2023-07-31T14:50:10;27.10;41.90
16827;DHT22;8530;49.540;8.576;2023-07-31T14:52:38;27.10;41.70
16827;DHT22;8530;49.540;8.576;2023-07-31T14:55:05;27.10;41.60
16827;DHT22;8530;49.540;8.576;2023-07-31T14:57:32;27.00;41.40
16827;DHT22;8530;49.540;8.576;2023-07-31T14:59:59;27.00;41.50
16827;DHT22;8530;49.540;8.576;2023-07-31T15:02:26;27.00;41.50
16827;DHT22;8530;49.540;8.576;2023-07-31T15:04:53;27.00;41.50
16827;DHT22;8530;49.540;8.576;2023-07-31T15:07:20;27.00;41.40
16827;DHT22;8530;49.540;8.576;2023-07-31T15:09:48;27.00;41.40
16827;DHT22;8530;49.540;8.576;2023-07-31T15:12:15;27.00;41.40
16827;DHT22;8530;49.540;8.576;2023-07-31T15:14:41;27.00;41.40
16827;DHT22;8530;49.540;8.576;2023-07-31T15:17:08;27.10;41.40
16827;DHT22;8530;49.540;8.576;2023-07-31T15:19:35;27.20;41.40
16827;DHT22;8530;49.540;8.576;2023-07-31T15:22:03;27.20;41.30
16827;DHT22;8530;49.540;8.576;2023-07-31T15:24:30;27.20;41.20
16827;DHT22;8530;49.540;8.576;2023-07-31T15:26:58;27.20;41.10
16827;DHT22;8530;49.540;8.576;2023-07-31T15:29:27;27.20;41.10
16827;DHT22;8530;49.540;8.576;2023-07-31T15:31:54;27.20;40.90
16827;DHT22;8530;49.540;8.576;2023-07-31T15:34:21;27.10;40.70
16827;DHT22;8530;49.540;8.576;2023-07-31T15:36:47;27.10;40.70
16827;DHT22;8530;49.540;8.576;2023-07-31T15:39:14;26.90;40.60
16827;DHT22;8530;49.540;8.576;2023-07-31T15:41:41;26.90;40.60
16827;DHT22;8530;49.540;8.576;2023-07-31T15:44:09;26.90;40.60
16827;DHT22;8530;49.540;8.576;2023-07-31T15:46:36;26.90;40.60